KCWA/CWA METAR and TAF weather

Enter ICAO airport designator
Station Type Date Time Source
KCWA METAR 2022/12/04 10:55 UTC NOAA

KCWA 041055Z AUTO 23005KT 10SM CLR M11/M13 A3009 RMK AO2


Station Type Date Time Source
KCWA Decoded METAR 2022/12/04 10:55 UTC NOAA

Mosinee / Central Wisconsin, WI, United States (KCWA) 44-47N 089-40W
Dec 04, 2022 - 05:55 AM EST / 2022.12.04 1055 UTC
Wind: from the SW (230 degrees) at 6 MPH (5 KT):0
Visibility: 10 mile(s):0
Sky conditions: clear
Temperature: 12 F (-11 C)
Windchill: 3 F (-16 C):1
Dew Point: 8 F (-13 C)
Relative Humidity: 85%
Pressure (altimeter): 30.09 in. Hg (1018 hPa)
ob: KCWA 041055Z AUTO 23005KT 10SM CLR M11/M13 A3009 RMK AO2
cycle: 11

Station Type Date Time Source
KCWA TAF 2022/12/04 06:21 UTC NOAA

TAF KCWA 040520Z 0406/0506 23006KT P6SM SKC WS020/27035KT
FM041600 25010G17KT P6SM SKC
FM042200 23010G16KT P6SM SKC WS020/26045KT

Example: see airport list